Terminal Aerodrome Forecast
Issued by NWS

Home | Current Version | Previous Version | Text Only | Print | Product List | Glossary Off
Versions: 1 2 3 4 5 6 7 8 9 10 11 12 13 14 15 16 17 18 19 20 21 22 23 24 25 26 27

000
FTUS41 KGYX 190338 AAA
TAFRKD
TAF AMD
KRKD 190338Z 1904/1924 26004KT 1/2SM FG VV005
     FM190800 26005KT P6SM BKN045
     FM191700 32012G22KT P6SM BKN080
      AMD LTD TO CLD VIS AND WIND=

USA.gov is the U.S. government's official web portal to all federal, state and local government web resources and services.